sensor_id;sensor_type;location;lat;lon;timestamp;pressure;altitude;pressure_sealevel;temperature;humidity
18850;BME280;4989;48.772;9.154;2022-10-17T00:00:53;98524.44;;;15.97;100.00
18850;BME280;4989;48.772;9.154;2022-10-17T00:05:56;98527.53;;;16.65;100.00
18850;BME280;4989;48.772;9.154;2022-10-17T00:11:06;98528.66;;;16.55;100.00
18850;BME280;4989;48.772;9.154;2022-10-17T00:16:08;98546.00;;;15.86;100.00
18850;BME280;4989;48.772;9.154;2022-10-17T00:21:18;98543.59;;;15.62;100.00
18850;BME280;4989;48.772;9.154;2022-10-17T00:26:21;98537.38;;;15.49;100.00
18850;BME280;4989;48.772;9.154;2022-10-17T00:31:24;98548.47;;;15.32;100.00
18850;BME280;4989;48.772;9.154;2022-10-17T00:36:26;98547.91;;;15.25;100.00
18850;BME280;4989;48.772;9.154;2022-10-17T00:41:32;98553.16;;;15.06;100.00
18850;BME280;4989;48.772;9.154;2022-10-17T00:46:36;98561.06;;;15.04;100.00
18850;BME280;4989;48.772;9.154;2022-10-17T00:56:47;98560.50;;;14.97;100.00
18850;BME280;4989;48.772;9.154;2022-10-17T01:02:00;98551.22;;;15.20;100.00
18850;BME280;4989;48.772;9.154;2022-10-17T01:07:04;98548.69;;;15.25;100.00
18850;BME280;4989;48.772;9.154;2022-10-17T01:12:15;98558.84;;;15.50;100.00
18850;BME280;4989;48.772;9.154;2022-10-17T01:17:40;98558.53;;;16.09;100.00
18850;BME280;4989;48.772;9.154;2022-10-17T01:23:05;98555.94;;;15.92;100.00
18850;BME280;4989;48.772;9.154;2022-10-17T01:34:01;98552.28;;;15.09;100.00
18850;BME280;4989;48.772;9.154;2022-10-17T01:39:21;98546.59;;;15.42;100.00
18850;BME280;4989;48.772;9.154;2022-10-17T01:45:13;98552.63;;;15.50;100.00
18850;BME280;4989;48.772;9.154;2022-10-17T01:50:24;98555.69;;;15.26;100.00
18850;BME280;4989;48.772;9.154;2022-10-17T01:55:32;98553.28;;;15.03;100.00
18850;BME280;4989;48.772;9.154;2022-10-17T02:00:37;98542.78;;;15.01;100.00
18850;BME280;4989;48.772;9.154;2022-10-17T02:05:44;98534.88;;;14.91;100.00
18850;BME280;4989;48.772;9.154;2022-10-17T02:11:01;98531.78;;;14.88;100.00
18850;BME280;4989;48.772;9.154;2022-10-17T02:16:42;98537.63;;;15.29;100.00
18850;BME280;4989;48.772;9.154;2022-10-17T02:22:06;98533.88;;;14.97;100.00
18850;BME280;4989;48.772;9.154;2022-10-17T02:32:52;98541.88;;;14.79;100.00
18850;BME280;4989;48.772;9.154;2022-10-17T02:37:57;98547.44;;;14.88;100.00
18850;BME280;4989;48.772;9.154;2022-10-17T02:43:01;98541.88;;;15.43;100.00
18850;BME280;4989;48.772;9.154;2022-10-17T02:53:16;98536.50;;;15.39;100.00
18850;BME280;4989;48.772;9.154;2022-10-17T02:58:24;98543.41;;;15.05;100.00
18850;BME280;4989;48.772;9.154;2022-10-17T03:03:30;98548.13;;;14.92;100.00
18850;BME280;4989;48.772;9.154;2022-10-17T03:08:36;98543.84;;;14.91;100.00
18850;BME280;4989;48.772;9.154;2022-10-17T03:13:59;98545.75;;;15.07;100.00
18850;BME280;4989;48.772;9.154;2022-10-17T03:19:02;98543.41;;;14.80;100.00
18850;BME280;4989;48.772;9.154;2022-10-17T03:24:06;98554.66;;;14.69;100.00
18850;BME280;4989;48.772;9.154;2022-10-17T03:29:08;98556.22;;;14.83;100.00
18850;BME280;4989;48.772;9.154;2022-10-17T03:34:12;98568.06;;;15.05;100.00
18850;BME280;4989;48.772;9.154;2022-10-17T03:39:18;98569.09;;;14.70;100.00
18850;BME280;4989;48.772;9.154;2022-10-17T03:44:20;98565.06;;;14.45;100.00
18850;BME280;4989;48.772;9.154;2022-10-17T03:49:23;98571.91;;;15.46;100.00
18850;BME280;4989;48.772;9.154;2022-10-17T03:54:25;98571.25;;;16.02;100.00
18850;BME280;4989;48.772;9.154;2022-10-17T03:59:28;98577.88;;;15.92;100.00
18850;BME280;4989;48.772;9.154;2022-10-17T04:04:43;98580.34;;;15.14;100.00
18850;BME280;4989;48.772;9.154;2022-10-17T04:09:46;98586.81;;;15.07;100.00
18850;BME280;4989;48.772;9.154;2022-10-17T04:14:53;98587.34;;;15.15;100.00
18850;BME280;4989;48.772;9.154;2022-10-17T04:19:56;98587.44;;;15.37;100.00
18850;BME280;4989;48.772;9.154;2022-10-17T04:24:58;98600.44;;;14.81;100.00
18850;BME280;4989;48.772;9.154;2022-10-17T04:30:10;98596.81;;;14.72;100.00
18850;BME280;4989;48.772;9.154;2022-10-17T04:35:13;98597.22;;;14.70;100.00
18850;BME280;4989;48.772;9.154;2022-10-17T04:40:20;98601.94;;;14.70;100.00
18850;BME280;4989;48.772;9.154;2022-10-17T04:45:25;98604.75;;;14.53;100.00
18850;BME280;4989;48.772;9.154;2022-10-17T04:50:32;98603.47;;;14.41;100.00
18850;BME280;4989;48.772;9.154;2022-10-17T04:56:13;98606.75;;;14.49;100.00
18850;BME280;4989;48.772;9.154;2022-10-17T05:01:19;98608.50;;;15.14;100.00
18850;BME280;4989;48.772;9.154;2022-10-17T05:06:26;98614.91;;;14.95;100.00
18850;BME280;4989;48.772;9.154;2022-10-17T05:11:54;98617.97;;;14.84;100.00
18850;BME280;4989;48.772;9.154;2022-10-17T05:16:57;98613.34;;;14.68;100.00
18850;BME280;4989;48.772;9.154;2022-10-17T05:22:00;98607.91;;;14.52;100.00
18850;BME280;4989;48.772;9.154;2022-10-17T05:27:03;98607.97;;;14.48;100.00
18850;BME280;4989;48.772;9.154;2022-10-17T05:32:06;98606.75;;;14.65;100.00
18850;BME280;4989;48.772;9.154;2022-10-17T05:37:15;98612.34;;;15.17;100.00
18850;BME280;4989;48.772;9.154;2022-10-17T05:42:23;98621.19;;;15.21;100.00
18850;BME280;4989;48.772;9.154;2022-10-17T05:47:26;98622.97;;;14.73;100.00
18850;BME280;4989;48.772;9.154;2022-10-17T05:52:29;98624.91;;;14.59;100.00
18850;BME280;4989;48.772;9.154;2022-10-17T05:57:42;98622.84;;;14.47;100.00
18850;BME280;4989;48.772;9.154;2022-10-17T06:02:49;98630.38;;;14.59;100.00
18850;BME280;4989;48.772;9.154;2022-10-17T06:07:53;98643.03;;;14.53;100.00
18850;BME280;4989;48.772;9.154;2022-10-17T06:13:03;98633.03;;;14.47;100.00
18850;BME280;4989;48.772;9.154;2022-10-17T06:18:06;98641.97;;;14.63;100.00
18850;BME280;4989;48.772;9.154;2022-10-17T06:23:09;98627.38;;;14.83;100.00
18850;BME280;4989;48.772;9.154;2022-10-17T06:28:38;98632.53;;;15.74;100.00
18850;BME280;4989;48.772;9.154;2022-10-17T06:33:40;98645.38;;;15.09;100.00
18850;BME280;4989;48.772;9.154;2022-10-17T06:38:44;98651.97;;;15.25;100.00
18850;BME280;4989;48.772;9.154;2022-10-17T06:43:56;98657.72;;;15.43;100.00
18850;BME280;4989;48.772;9.154;2022-10-17T06:49:14;98677.19;;;15.20;100.00
18850;BME280;4989;48.772;9.154;2022-10-17T06:54:25;98680.81;;;15.55;100.00
18850;BME280;4989;48.772;9.154;2022-10-17T06:59:38;98690.16;;;16.09;100.00
18850;BME280;4989;48.772;9.154;2022-10-17T07:04:47;98696.09;;;16.89;100.00
18850;BME280;4989;48.772;9.154;2022-10-17T07:09:50;98693.03;;;17.31;100.00
18850;BME280;4989;48.772;9.154;2022-10-17T07:14:54;98697.00;;;16.86;100.00
18850;BME280;4989;48.772;9.154;2022-10-17T07:19:57;98698.53;;;16.87;100.00
18850;BME280;4989;48.772;9.154;2022-10-17T07:25:01;98699.88;;;16.70;100.00
18850;BME280;4989;48.772;9.154;2022-10-17T07:30:09;98709.88;;;16.77;100.00
18850;BME280;4989;48.772;9.154;2022-10-17T07:35:25;98704.97;;;17.37;100.00
18850;BME280;4989;48.772;9.154;2022-10-17T07:40:27;98706.84;;;17.50;100.00
18850;BME280;4989;48.772;9.154;2022-10-17T07:45:31;98718.34;;;17.79;100.00
18850;BME280;4989;48.772;9.154;2022-10-17T07:50:34;98716.91;;;18.15;100.00
18850;BME280;4989;48.772;9.154;2022-10-17T07:55:37;98725.09;;;18.56;100.00
18850;BME280;4989;48.772;9.154;2022-10-17T08:00:40;98716.72;;;19.05;100.00
18850;BME280;4989;48.772;9.154;2022-10-17T08:05:43;98726.09;;;19.59;100.00
18850;BME280;4989;48.772;9.154;2022-10-17T08:10:45;98732.44;;;19.93;97.01
18850;BME280;4989;48.772;9.154;2022-10-17T08:15:48;98731.44;;;19.72;100.00
18850;BME280;4989;48.772;9.154;2022-10-17T08:20:50;98726.09;;;19.59;99.52
18850;BME280;4989;48.772;9.154;2022-10-17T08:26:02;98727.63;;;19.60;94.31
18850;BME280;4989;48.772;9.154;2022-10-17T08:31:11;98717.47;;;19.76;92.17
18850;BME280;4989;48.772;9.154;2022-10-17T08:36:17;98737.25;;;19.83;89.66
18850;BME280;4989;48.772;9.154;2022-10-17T08:46:31;98740.25;;;20.28;88.08
18850;BME280;4989;48.772;9.154;2022-10-17T08:51:39;98734.38;;;20.83;88.54
18850;BME280;4989;48.772;9.154;2022-10-17T08:56:49;98745.94;;;20.48;87.61
18850;BME280;4989;48.772;9.154;2022-10-17T09:07:16;98741.88;;;20.68;87.35
18850;BME280;4989;48.772;9.154;2022-10-17T09:23:39;98734.44;;;20.98;93.24
18850;BME280;4989;48.772;9.154;2022-10-17T09:33:36;98733.81;;;21.47;85.57
18850;BME280;4989;48.772;9.154;2022-10-17T09:38:58;98738.13;;;21.48;83.83
18850;BME280;4989;48.772;9.154;2022-10-17T09:44:34;98731.63;;;21.52;84.71
18850;BME280;4989;48.772;9.154;2022-10-17T09:49:45;98728.84;;;21.66;85.04
18850;BME280;4989;48.772;9.154;2022-10-17T09:54:49;98733.50;;;21.75;81.36
18850;BME280;4989;48.772;9.154;2022-10-17T10:00:02;98740.38;;;21.94;78.28
18850;BME280;4989;48.772;9.154;2022-10-17T10:05:19;98735.69;;;22.01;76.63
18850;BME280;4989;48.772;9.154;2022-10-17T10:10:24;98742.59;;;22.11;75.98
18850;BME280;4989;48.772;9.154;2022-10-17T10:20:36;98737.44;;;22.33;75.50
18850;BME280;4989;48.772;9.154;2022-10-17T10:25:51;98748.16;;;22.46;72.50
18850;BME280;4989;48.772;9.154;2022-10-17T10:30:56;98751.69;;;22.47;71.10
18850;BME280;4989;48.772;9.154;2022-10-17T10:36:03;98756.28;;;22.50;72.02
18850;BME280;4989;48.772;9.154;2022-10-17T10:41:10;98755.44;;;22.64;72.75
18850;BME280;4989;48.772;9.154;2022-10-17T10:46:23;98752.31;;;22.77;74.46
18850;BME280;4989;48.772;9.154;2022-10-17T10:51:40;98756.16;;;23.00;71.11
18850;BME280;4989;48.772;9.154;2022-10-17T10:56:49;98747.06;;;23.77;68.58
18850;BME280;4989;48.772;9.154;2022-10-17T11:07:26;98739.22;;;24.56;64.87
18850;BME280;4989;48.772;9.154;2022-10-17T11:12:36;98737.03;;;28.47;55.02
18850;BME280;4989;48.772;9.154;2022-10-17T11:17:42;98734.13;;;28.04;52.70
18850;BME280;4989;48.772;9.154;2022-10-17T11:22:48;98731.25;;;26.66;55.54
18850;BME280;4989;48.772;9.154;2022-10-17T11:27:53;98724.75;;;28.01;50.34
18850;BME280;4989;48.772;9.154;2022-10-17T11:32:59;98719.63;;;28.54;50.04
18850;BME280;4989;48.772;9.154;2022-10-17T11:38:17;98718.78;;;27.56;56.64
18850;BME280;4989;48.772;9.154;2022-10-17T11:43:29;98735.72;;;26.06;53.97
18850;BME280;4989;48.772;9.154;2022-10-17T11:53:57;98716.97;;;25.44;54.95
18850;BME280;4989;48.772;9.154;2022-10-17T12:21:21;98711.41;;;25.89;54.25
18850;BME280;4989;48.772;9.154;2022-10-17T12:26:28;98706.34;;;25.31;57.04
18850;BME280;4989;48.772;9.154;2022-10-17T12:31:31;98708.78;;;25.01;57.25
18850;BME280;4989;48.772;9.154;2022-10-17T12:36:36;98710.88;;;25.18;56.67
18850;BME280;4989;48.772;9.154;2022-10-17T13:02:45;98704.97;;;24.93;61.55
18850;BME280;4989;48.772;9.154;2022-10-17T13:07:49;98708.75;;;24.79;59.03
18850;BME280;4989;48.772;9.154;2022-10-17T13:13:04;98720.19;;;25.03;58.53
18850;BME280;4989;48.772;9.154;2022-10-17T13:18:21;98730.63;;;24.11;71.19
18850;BME280;4989;48.772;9.154;2022-10-17T13:23:25;98739.47;;;23.72;74.31
18850;BME280;4989;48.772;9.154;2022-10-17T13:28:27;98744.91;;;23.93;73.56
18850;BME280;4989;48.772;9.154;2022-10-17T13:33:35;98750.41;;;25.89;66.39
18850;BME280;4989;48.772;9.154;2022-10-17T13:38:39;98749.19;;;29.12;55.21
18850;BME280;4989;48.772;9.154;2022-10-17T13:43:44;98760.03;;;27.80;58.17
18850;BME280;4989;48.772;9.154;2022-10-17T13:48:46;98758.72;;;25.44;65.89
18850;BME280;4989;48.772;9.154;2022-10-17T13:53:50;98757.34;;;24.40;69.34
18850;BME280;4989;48.772;9.154;2022-10-17T13:58:53;98758.63;;;24.08;71.24
18850;BME280;4989;48.772;9.154;2022-10-17T14:03:58;98765.13;;;23.67;74.70
18850;BME280;4989;48.772;9.154;2022-10-17T14:09:21;98769.50;;;23.48;74.96
18850;BME280;4989;48.772;9.154;2022-10-17T14:14:24;98767.66;;;23.39;75.96
18850;BME280;4989;48.772;9.154;2022-10-17T14:24:30;98768.47;;;22.99;78.76
18850;BME280;4989;48.772;9.154;2022-10-17T14:29:53;98772.22;;;22.96;76.20
18850;BME280;4989;48.772;9.154;2022-10-17T14:34:58;98772.84;;;22.85;78.90
18850;BME280;4989;48.772;9.154;2022-10-17T14:40:26;98770.75;;;22.80;78.81
18850;BME280;4989;48.772;9.154;2022-10-17T14:45:35;98769.72;;;22.77;79.17
18850;BME280;4989;48.772;9.154;2022-10-17T14:50:39;98770.69;;;22.74;79.15
18850;BME280;4989;48.772;9.154;2022-10-17T14:55:57;98775.13;;;22.66;80.43
18850;BME280;4989;48.772;9.154;2022-10-17T15:01:01;98779.16;;;22.65;80.32
18850;BME280;4989;48.772;9.154;2022-10-17T15:06:28;98787.16;;;22.63;80.70
18850;BME280;4989;48.772;9.154;2022-10-17T15:11:31;98782.59;;;22.60;76.71
18850;BME280;4989;48.772;9.154;2022-10-17T15:16:34;98794.38;;;22.55;75.38
18850;BME280;4989;48.772;9.154;2022-10-17T15:21:36;98794.22;;;22.44;75.07
18850;BME280;4989;48.772;9.154;2022-10-17T15:26:45;98790.53;;;22.32;76.11
18850;BME280;4989;48.772;9.154;2022-10-17T15:31:48;98788.47;;;22.12;77.28
18850;BME280;4989;48.772;9.154;2022-10-17T15:36:51;98787.53;;;22.00;79.08
18850;BME280;4989;48.772;9.154;2022-10-17T15:41:55;98786.84;;;21.90;81.85
18850;BME280;4989;48.772;9.154;2022-10-17T15:46:57;98787.53;;;21.85;82.22
18850;BME280;4989;48.772;9.154;2022-10-17T15:51:59;98785.81;;;21.73;83.52
18850;BME280;4989;48.772;9.154;2022-10-17T15:57:02;98792.13;;;21.59;85.14
18850;BME280;4989;48.772;9.154;2022-10-17T16:02:12;98791.56;;;21.55;85.85
18850;BME280;4989;48.772;9.154;2022-10-17T16:07:16;98799.47;;;21.62;84.80
18850;BME280;4989;48.772;9.154;2022-10-17T16:12:26;98797.25;;;21.66;86.07
18850;BME280;4989;48.772;9.154;2022-10-17T16:17:38;98809.28;;;21.63;86.54
18850;BME280;4989;48.772;9.154;2022-10-17T16:22:42;98813.84;;;21.51;86.00
18850;BME280;4989;48.772;9.154;2022-10-17T16:27:46;98819.00;;;21.43;86.47
18850;BME280;4989;48.772;9.154;2022-10-17T16:32:50;98832.53;;;21.41;87.40
18850;BME280;4989;48.772;9.154;2022-10-17T16:37:53;98834.06;;;21.03;87.28
18850;BME280;4989;48.772;9.154;2022-10-17T16:42:55;98843.53;;;20.64;90.97
18850;BME280;4989;48.772;9.154;2022-10-17T16:47:58;98836.56;;;20.35;93.10
18850;BME280;4989;48.772;9.154;2022-10-17T16:53:00;98850.09;;;20.24;94.19
18850;BME280;4989;48.772;9.154;2022-10-17T16:58:05;98848.78;;;20.52;95.62
18850;BME280;4989;48.772;9.154;2022-10-17T17:03:07;98863.84;;;20.75;92.74
18850;BME280;4989;48.772;9.154;2022-10-17T17:08:09;98859.69;;;20.80;90.34
18850;BME280;4989;48.772;9.154;2022-10-17T17:13:13;98862.88;;;20.45;91.38
18850;BME280;4989;48.772;9.154;2022-10-17T17:18:16;98865.94;;;20.56;92.52
18850;BME280;4989;48.772;9.154;2022-10-17T17:23:18;98873.91;;;20.88;90.70
18850;BME280;4989;48.772;9.154;2022-10-17T17:28:21;98880.25;;;20.46;89.50
18850;BME280;4989;48.772;9.154;2022-10-17T17:33:24;98890.97;;;19.92;94.37
18850;BME280;4989;48.772;9.154;2022-10-17T17:38:31;98891.59;;;19.78;96.43
18850;BME280;4989;48.772;9.154;2022-10-17T17:43:35;98887.00;;;19.38;100.00
18850;BME280;4989;48.772;9.154;2022-10-17T17:48:39;98887.31;;;19.31;100.00
18850;BME280;4989;48.772;9.154;2022-10-17T17:53:42;98891.91;;;19.61;100.00
18850;BME280;4989;48.772;9.154;2022-10-17T17:58:46;98896.78;;;20.03;99.64
18850;BME280;4989;48.772;9.154;2022-10-17T18:03:51;98904.31;;;19.94;94.32
18850;BME280;4989;48.772;9.154;2022-10-17T18:08:56;98902.47;;;19.63;97.92
18850;BME280;4989;48.772;9.154;2022-10-17T18:14:06;98916.72;;;19.34;99.69
18850;BME280;4989;48.772;9.154;2022-10-17T18:19:10;98909.91;;;18.98;100.00
18850;BME280;4989;48.772;9.154;2022-10-17T18:24:12;98917.56;;;19.03;100.00
18850;BME280;4989;48.772;9.154;2022-10-17T18:29:15;98916.00;;;18.84;100.00
18850;BME280;4989;48.772;9.154;2022-10-17T18:34:20;98921.78;;;18.76;100.00
18850;BME280;4989;48.772;9.154;2022-10-17T18:39:23;98922.34;;;18.71;100.00
18850;BME280;4989;48.772;9.154;2022-10-17T18:44:25;98925.75;;;18.75;100.00
18850;BME280;4989;48.772;9.154;2022-10-17T18:49:28;98924.59;;;18.64;100.00
18850;BME280;4989;48.772;9.154;2022-10-17T18:54:31;98930.59;;;18.71;100.00
18850;BME280;4989;48.772;9.154;2022-10-17T18:59:35;98935.28;;;18.84;100.00
18850;BME280;4989;48.772;9.154;2022-10-17T19:04:38;98929.00;;;18.52;100.00
18850;BME280;4989;48.772;9.154;2022-10-17T19:09:41;98941.44;;;18.35;100.00
18850;BME280;4989;48.772;9.154;2022-10-17T19:14:44;98939.03;;;18.37;100.00
18850;BME280;4989;48.772;9.154;2022-10-17T19:19:46;98940.81;;;18.30;100.00
18850;BME280;4989;48.772;9.154;2022-10-17T19:24:51;98936.94;;;18.50;100.00
18850;BME280;4989;48.772;9.154;2022-10-17T19:29:53;98945.25;;;18.59;100.00
18850;BME280;4989;48.772;9.154;2022-10-17T19:34:56;98944.16;;;18.25;100.00
18850;BME280;4989;48.772;9.154;2022-10-17T19:39:58;98953.63;;;18.02;100.00
18850;BME280;4989;48.772;9.154;2022-10-17T19:45:01;98943.66;;;17.96;100.00
18850;BME280;4989;48.772;9.154;2022-10-17T19:50:04;98946.72;;;17.98;100.00
18850;BME280;4989;48.772;9.154;2022-10-17T19:55:07;98941.66;;;17.96;100.00
18850;BME280;4989;48.772;9.154;2022-10-17T20:00:10;98932.06;;;17.79;100.00
18850;BME280;4989;48.772;9.154;2022-10-17T20:05:13;98936.22;;;17.83;100.00
18850;BME280;4989;48.772;9.154;2022-10-17T20:10:20;98928.66;;;17.97;100.00
18850;BME280;4989;48.772;9.154;2022-10-17T20:15:23;98931.53;;;17.71;100.00
18850;BME280;4989;48.772;9.154;2022-10-17T20:20:25;98931.38;;;17.53;100.00
18850;BME280;4989;48.772;9.154;2022-10-17T20:25:28;98932.56;;;17.52;100.00
18850;BME280;4989;48.772;9.154;2022-10-17T20:30:31;98937.31;;;17.51;100.00
18850;BME280;4989;48.772;9.154;2022-10-17T20:35:33;98933.72;;;17.42;100.00
18850;BME280;4989;48.772;9.154;2022-10-17T20:40:36;98938.56;;;17.37;100.00
18850;BME280;4989;48.772;9.154;2022-10-17T20:45:43;98956.84;;;17.31;100.00
18850;BME280;4989;48.772;9.154;2022-10-17T20:50:53;98948.66;;;17.40;100.00
18850;BME280;4989;48.772;9.154;2022-10-17T20:56:07;98961.66;;;17.27;100.00
18850;BME280;4989;48.772;9.154;2022-10-17T21:01:10;98966.84;;;17.12;100.00
18850;BME280;4989;48.772;9.154;2022-10-17T21:06:13;98956.84;;;17.06;100.00
18850;BME280;4989;48.772;9.154;2022-10-17T21:11:18;98957.97;;;16.96;100.00
18850;BME280;4989;48.772;9.154;2022-10-17T21:16:22;98962.81;;;16.91;100.00
18850;BME280;4989;48.772;9.154;2022-10-17T21:21:32;98964.34;;;16.92;100.00
18850;BME280;4989;48.772;9.154;2022-10-17T21:26:36;98960.16;;;16.88;100.00
18850;BME280;4989;48.772;9.154;2022-10-17T21:31:41;98959.94;;;16.82;100.00
18850;BME280;4989;48.772;9.154;2022-10-17T21:36:44;98956.75;;;16.84;100.00
18850;BME280;4989;48.772;9.154;2022-10-17T21:41:47;98967.63;;;16.87;100.00
18850;BME280;4989;48.772;9.154;2022-10-17T21:46:50;98971.69;;;16.96;100.00
18850;BME280;4989;48.772;9.154;2022-10-17T21:51:53;98970.91;;;16.82;100.00
18850;BME280;4989;48.772;9.154;2022-10-17T21:56:56;98970.47;;;16.71;100.00
18850;BME280;4989;48.772;9.154;2022-10-17T22:01:58;98964.53;;;16.60;100.00
18850;BME280;4989;48.772;9.154;2022-10-17T22:07:00;98960.38;;;16.68;100.00
18850;BME280;4989;48.772;9.154;2022-10-17T22:12:03;98955.66;;;16.81;100.00
18850;BME280;4989;48.772;9.154;2022-10-17T22:17:06;98955.63;;;16.68;100.00
18850;BME280;4989;48.772;9.154;2022-10-17T22:22:08;98951.03;;;16.65;100.00
18850;BME280;4989;48.772;9.154;2022-10-17T22:27:10;98948.06;;;16.60;100.00
18850;BME280;4989;48.772;9.154;2022-10-17T22:32:13;98943.09;;;16.55;100.00
18850;BME280;4989;48.772;9.154;2022-10-17T22:37:22;98942.91;;;16.62;100.00
18850;BME280;4989;48.772;9.154;2022-10-17T22:42:25;98935.09;;;16.73;100.00
18850;BME280;4989;48.772;9.154;2022-10-17T22:47:28;98938.41;;;16.68;100.00
18850;BME280;4989;48.772;9.154;2022-10-17T22:52:32;98930.75;;;16.88;100.00
18850;BME280;4989;48.772;9.154;2022-10-17T22:57:35;98922.16;;;16.86;100.00
18850;BME280;4989;48.772;9.154;2022-10-17T23:02:37;98921.03;;;16.97;100.00
18850;BME280;4989;48.772;9.154;2022-10-17T23:07:40;98913.56;;;17.10;100.00
18850;BME280;4989;48.772;9.154;2022-10-17T23:12:42;98919.16;;;17.06;100.00
18850;BME280;4989;48.772;9.154;2022-10-17T23:17:45;98921.94;;;16.93;100.00
18850;BME280;4989;48.772;9.154;2022-10-17T23:22:47;98919.53;;;16.96;100.00
18850;BME280;4989;48.772;9.154;2022-10-17T23:27:49;98915.25;;;16.94;100.00
18850;BME280;4989;48.772;9.154;2022-10-17T23:32:52;98906.88;;;16.98;100.00
18850;BME280;4989;48.772;9.154;2022-10-17T23:37:55;98896.13;;;17.04;100.00
18850;BME280;4989;48.772;9.154;2022-10-17T23:42:57;98895.88;;;17.11;100.00
18850;BME280;4989;48.772;9.154;2022-10-17T23:47:59;98891.34;;;17.17;100.00
18850;BME280;4989;48.772;9.154;2022-10-17T23:53:02;98893.28;;;16.82;100.00
18850;BME280;4989;48.772;9.154;2022-10-17T23:58:04;98891.59;;;17.10;100.00
